Time;durP1;ratioP1;P1;durP2;ratioP2;P2;SDS_P1;SDS_P2;PMS_P1;PMS_P2;Temp;Humidity;BMP_temperature;BMP_pressure;BME280_temperature;BME280_humidity;BME280_pressure;Samples;Min_cycle;Max_cycle;Signal;HPM_P1;HPM_P2
2024/04/17 00:00:43;;;;;;;7.63;4.30;;;;;;;21.45;51.70;100496.94;11245718;26;20003;-85
2024/04/17 00:06:09;;;;;;;8.48;3.97;;;;;;;21.17;53.14;100500.56;11203765;26;20361;-85
2024/04/17 00:11:36;;;;;;;9.10;3.83;;;;;;;20.96;55.03;100473.44;11241538;26;20035;-83
2024/04/17 00:17:04;;;;;;;8.98;3.75;;;;;;;20.62;61.08;100486.13;11195930;26;20003;-85
2024/04/17 00:22:32;;;;;;;7.13;3.97;;;;;;;20.54;62.65;100474.78;11215834;26;20006;-87
2024/04/17 00:27:58;;;;;;;12.10;4.28;;;;;;;20.55;61.79;100466.66;11271808;26;20074;-85
2024/04/17 00:33:35;;;;;;;8.90;4.13;;;;;;;20.58;61.32;100457.66;11257186;26;20068;-86
2024/04/17 00:39:03;;;;;;;7.60;4.10;;;;;;;20.19;64.25;100452.50;11332782;26;20009;-84
2024/04/17 00:44:31;;;;;;;7.47;3.88;;;;;;;20.19;62.98;100446.28;11301594;26;20021;-85
2024/04/17 00:49:59;;;;;;;7.17;3.93;;;;;;;19.76;66.93;100442.09;11279339;26;20019;-85
2024/04/17 00:55:23;;;;;;;;;;;;;;;19.53;69.51;100431.13;11259158;26;20030;-85
2024/04/17 01:00:48;;;;;;;8.63;4.45;;;;;;;19.44;74.43;100444.72;11302135;26;19924;-84
2024/04/17 01:06:15;;;;;;;10.88;4.68;;;;;;;19.59;75.34;100436.31;11312862;26;20002;-81
2024/04/17 01:11:44;;;;;;;8.77;4.53;;;;;;;19.65;73.53;100409.38;11263177;26;20414;-83
2024/04/17 01:17:08;;;;;;;9.25;4.53;;;;;;;19.62;73.25;100420.19;11243888;26;19998;-83
2024/04/17 01:22:35;;;;;;;7.88;4.22;;;;;;;19.55;74.07;100431.09;11301229;26;20759;-83
2024/04/17 01:28:02;;;;;;;9.43;4.97;;;;;;;19.38;75.87;100427.03;11277939;26;20027;-83
2024/04/17 01:33:26;;;;;;;9.00;4.60;;;;;;;19.14;78.73;100406.25;11260777;26;20002;-84
2024/04/17 01:38:51;;;;;;;7.43;4.10;;;;;;;19.05;79.83;100391.28;11258125;26;20002;-83
2024/04/17 01:44:18;;;;;;;7.03;3.88;;;;;;;19.08;78.59;100356.44;11265273;26;20009;-84
2024/04/17 01:49:43;;;;;;;13.38;4.35;;;;;;;19.26;85.36;100368.44;11265279;26;20003;-83
2024/04/17 01:55:08;;;;;;;7.38;4.30;;;;;;;19.40;81.19;100338.66;11284674;26;20005;-83
2024/04/17 02:00:37;;;;;;;8.98;4.13;;;;;;;19.27;84.02;100338.09;11238131;26;20382;-86
2024/04/17 02:06:01;;;;;;;6.57;3.65;;;;;;;19.43;92.04;100326.03;11284501;26;20450;-84
2024/04/17 02:11:25;;;;;;;7.97;4.50;;;;;;;19.44;89.01;100325.13;11268476;26;20014;-85
2024/04/17 02:16:53;;;;;;;8.32;4.15;;;;;;;19.42;90.16;100315.41;11319606;26;19998;-84
2024/04/17 02:22:17;;;;;;;6.20;4.10;;;;;;;19.26;88.49;100320.28;11268919;26;20002;-84
2024/04/17 02:27:41;;;;;;;7.28;3.92;;;;;;;19.25;88.58;100301.56;11255288;26;20042;-84
2024/04/17 02:33:08;;;;;;;12.35;4.50;;;;;;;19.26;90.31;100290.84;11279300;26;20339;-84
2024/04/17 02:38:34;;;;;;;11.48;4.25;;;;;;;19.21;92.89;100263.31;11284884;26;20037;-84
2024/04/17 02:43:58;;;;;;;8.80;4.07;;;;;;;19.13;93.92;100264.44;11254196;26;19999;-84
2024/04/17 02:49:26;;;;;;;10.90;5.05;;;;;;;19.08;100.00;100251.22;11273393;26;19995;-84
2024/04/17 02:54:50;;;;;;;10.30;4.80;;;;;;;19.15;100.00;100257.28;11237497;26;20002;-84
2024/04/17 03:00:17;;;;;;;9.55;4.20;;;;;;;19.27;100.00;100251.56;11270445;26;19999;-83
2024/04/17 03:05:45;;;;;;;9.55;4.15;;;;;;;19.32;100.00;100263.00;11259556;26;20034;-84
2024/04/17 03:11:09;;;;;;;9.50;4.00;;;;;;;19.36;100.00;100248.66;11298950;26;20002;-84
2024/04/17 03:16:33;;;;;;;10.60;4.35;;;;;;;19.37;100.00;100242.34;11272921;26;19998;-84
2024/04/17 03:22:00;;;;;;;8.90;4.07;;;;;;;19.39;100.00;100233.34;11237808;26;20347;-84
2024/04/17 03:27:25;;;;;;;10.07;3.95;;;;;;;19.46;100.00;100232.28;11261914;26;20002;-85
2024/04/17 03:32:49;;;;;;;8.75;3.90;;;;;;;19.31;100.00;100238.03;11238759;26;20002;-84
2024/04/17 03:38:17;;;;;;;6.07;3.78;;;;;;;19.14;100.00;100215.38;11202679;26;20014;-84
2024/04/17 03:43:41;;;;;;;9.77;3.97;;;;;;;19.02;100.00;100233.53;11276237;26;20034;-84
2024/04/17 03:49:05;;;;;;;12.27;3.97;;;;;;;19.15;100.00;100233.19;11297102;26;20719;-84
2024/04/17 03:54:31;;;;;;;7.38;3.58;;;;;;;19.25;100.00;100226.63;11259363;26;20002;-83
2024/04/17 03:59:58;;;;;;;9.43;3.50;;;;;;;19.37;100.00;100220.94;11245634;26;20014;-84
2024/04/17 04:05:22;;;;;;;10.40;3.50;;;;;;;19.59;100.00;100206.03;11264575;26;20008;-83
2024/04/17 04:10:49;;;;;;;10.10;3.78;;;;;;;19.83;100.00;100191.00;11311482;26;20036;-84
2024/04/17 04:16:13;;;;;;;10.70;3.88;;;;;;;20.02;100.00;100173.41;11250086;26;20002;-84
2024/04/17 04:21:37;;;;;;;11.25;3.15;;;;;;;20.21;100.00;100144.22;11321848;26;20453;-85
2024/04/17 04:27:04;;;;;;;10.30;3.50;;;;;;;20.48;100.00;100153.16;11285672;26;19998;-84
2024/04/17 04:32:28;;;;;;;7.68;2.97;;;;;;;21.06;69.23;100111.66;11303250;26;20333;-86
2024/04/17 04:37:52;;;;;;;6.90;2.88;;;;;;;21.66;62.65;100068.09;11325819;26;20388;-84
2024/04/17 04:43:19;;;;;;;11.70;3.15;;;;;;;22.01;62.66;100020.97;11316020;26;20030;-82
2024/04/17 04:48:43;;;;;;;7.00;2.80;;;;;;;22.26;60.41;100018.97;11335409;26;20016;-84
2024/04/17 04:54:07;;;;;;;7.05;2.90;;;;;;;22.54;57.77;99993.50;11291713;26;20002;-84
2024/04/17 04:59:34;;;;;;;7.55;3.65;;;;;;;22.72;57.77;100029.47;11250608;26;19998;-86
2024/04/17 05:04:58;;;;;;;4.97;2.90;;;;;;;22.90;55.34;100039.44;11271516;26;20471;-83
2024/04/17 05:10:23;;;;;;;7.40;3.25;;;;;;;23.19;53.58;100041.59;11287743;26;20075;-83
2024/04/17 05:15:49;;;;;;;6.75;3.28;;;;;;;23.53;49.20;100051.66;11248666;26;20013;-84
2024/04/17 05:21:14;;;;;;;4.17;2.93;;;;;;;23.95;46.78;100055.88;11264182;26;20016;-84
2024/04/17 05:26:38;;;;;;;11.50;3.97;;;;;;;24.31;46.69;100048.59;11285050;26;20006;-84
2024/04/17 05:32:05;;;;;;;4.95;3.42;;;;;;;24.70;44.21;100034.81;11325988;26;19999;-83
2024/04/17 05:37:31;;;;;;;11.55;3.70;;;;;;;25.15;39.55;100053.03;11260540;26;20003;-84
2024/04/17 05:42:55;;;;;;;8.30;3.63;;;;;;;25.48;38.71;100008.84;11256159;26;20030;-84
2024/04/17 05:48:22;;;;;;;7.32;3.70;;;;;;;25.75;37.86;99991.03;11248195;26;21424;-85
2024/04/17 05:53:46;;;;;;;10.45;4.65;;;;;;;25.92;38.55;100020.69;11204230;26;20002;-85
2024/04/17 05:59:11;;;;;;;9.85;3.45;;;;;;;26.20;36.78;100007.22;11268077;26;20068;-84
2024/04/17 06:04:39;;;;;;;6.30;3.90;;;;;;;26.37;37.67;99964.75;11234718;26;20015;-83
2024/04/17 06:10:03;;;;;;;5.13;3.28;;;;;;;26.57;37.24;99959.84;11223545;26;20062;-82
2024/04/17 06:15:28;;;;;;;10.32;3.65;;;;;;;27.08;36.47;99972.88;11248783;26;20439;-84
2024/04/17 06:20:55;;;;;;;5.80;3.85;;;;;;;27.37;35.50;99958.28;11289950;26;20456;-83
2024/04/17 06:26:20;;;;;;;10.13;4.18;;;;;;;27.58;34.88;99940.56;11312253;26;19999;-83
2024/04/17 06:31:44;;;;;;;7.53;3.88;;;;;;;27.46;34.41;99919.69;11297030;26;20013;-84
2024/04/17 06:37:11;;;;;;;7.05;3.92;;;;;;;27.34;35.65;99921.38;11265953;26;20027;-86
2024/04/17 06:42:37;;;;;;;11.93;4.00;;;;;;;27.20;35.47;99931.41;11301496;26;20618;-87
2024/04/17 06:48:01;;;;;;;11.30;4.10;;;;;;;27.42;35.27;99904.59;11266412;26;19998;-85
2024/04/17 06:53:28;;;;;;;12.07;4.00;;;;;;;27.80;34.41;99876.72;11286665;26;20050;-87
2024/04/17 06:58:55;;;;;;;10.15;3.50;;;;;;;28.03;33.58;99875.97;11283830;26;20002;-87
2024/04/17 07:04:21;;;;;;;12.60;4.95;;;;;;;28.26;31.96;99871.66;11257277;26;20010;-85
2024/04/17 07:09:48;;;;;;;9.90;4.03;;;;;;;28.19;32.00;99857.66;11237122;26;20010;-83
2024/04/17 07:15:13;;;;;;;6.68;3.67;;;;;;;28.27;32.02;99838.09;11232728;26;20026;-80
2024/04/17 07:20:37;;;;;;;8.80;4.05;;;;;;;28.22;32.53;99835.72;11304430;26;20166;-88
2024/04/17 07:26:04;;;;;;;11.95;4.95;;;;;;;28.34;32.53;99823.09;11239500;26;20010;-86
2024/04/17 07:31:28;;;;;;;13.95;4.18;;;;;;;28.37;31.75;99787.56;11223308;26;20009;-91
2024/04/17 07:36:52;;;;;;;10.93;3.75;;;;;;;28.47;31.87;99822.09;11258563;26;20002;-91
2024/04/17 07:42:19;;;;;;;13.63;4.18;;;;;;;28.36;31.58;99810.25;11269955;26;20078;-92
2024/04/17 07:47:43;;;;;;;13.23;3.47;;;;;;;28.39;31.33;99796.47;11228661;26;19999;-89
2024/04/17 07:53:07;;;;;;;10.00;3.78;;;;;;;28.46;30.94;99795.91;11260920;26;20007;-86
2024/04/17 07:58:34;;;;;;;10.93;3.70;;;;;;;28.78;29.73;99757.34;11275927;26;20013;-92
2024/04/17 08:03:58;;;;;;;16.52;4.38;;;;;;;29.09;29.36;99764.88;11234106;26;20076;-85
2024/04/17 08:09:23;;;;;;;17.90;4.85;;;;;;;29.25;29.73;99732.81;11261790;26;19998;-80
2024/04/17 08:14:52;;;;;;;11.13;4.20;;;;;;;29.35;30.02;99702.19;11241366;26;20003;-88
2024/04/17 08:20:16;;;;;;;15.45;4.82;;;;;;;29.35;30.97;99686.75;11219561;26;20017;-79
2024/04/17 08:25:42;;;;;;;13.95;5.28;;;;;;;29.36;31.73;99660.44;11221736;26;19999;-80
2024/04/17 08:31:10;;;;;;;25.00;6.30;;;;;;;29.56;31.03;99660.56;11241906;26;20359;-84
2024/04/17 08:36:34;;;;;;;18.83;5.63;;;;;;;29.47;31.22;99623.22;11247558;26;20097;-81
2024/04/17 08:41:58;;;;;;;12.02;5.50;;;;;;;29.67;30.25;99553.56;11268973;26;20003;-83
2024/04/17 08:47:26;;;;;;;12.68;5.50;;;;;;;29.68;30.92;99634.22;11248459;26;20430;-81
2024/04/17 08:52:52;;;;;;;12.77;6.30;;;;;;;29.84;31.02;99648.31;11272136;26;20022;-84
2024/04/17 08:58:18;;;;;;;11.82;4.88;;;;;;;29.92;31.32;99658.59;11260703;26;19999;-82
2024/04/17 09:03:48;;;;;;;13.88;5.82;;;;;;;30.05;31.07;99643.84;11213092;26;20573;-84
2024/04/17 09:09:16;;;;;;;14.77;5.75;;;;;;;30.01;31.73;99612.41;11209176;26;20007;-84
2024/04/17 09:14:40;;;;;;;13.40;6.22;;;;;;;30.03;31.83;99605.00;11232177;26;20014;-83
2024/04/17 09:20:08;;;;;;;13.82;6.03;;;;;;;30.13;32.08;99615.97;11244149;26;19999;-82
2024/04/17 09:25:32;;;;;;;12.40;4.80;;;;;;;30.64;32.00;99638.00;11252291;26;20338;-80
2024/04/17 09:30:56;;;;;;;10.30;5.35;;;;;;;30.73;31.99;99626.28;11240050;26;20003;-80
2024/04/17 09:36:24;;;;;;;13.43;4.57;;;;;;;30.70;31.94;99604.75;11226048;26;20266;-77
2024/04/17 09:41:51;;;;;;;15.10;5.68;;;;;;;31.01;32.01;99602.06;11242924;26;19999;-81
2024/04/17 09:47:15;;;;;;;;;;;;;;;30.86;31.87;99590.63;11243013;26;20013;-81
2024/04/17 09:52:42;;;;;;;15.27;4.60;;;;;;;30.42;32.41;99565.34;11243750;26;19972;-81
2024/04/17 09:58:11;;;;;;;4.43;3.70;;;;;;;30.42;32.43;99578.09;11244149;26;20003;-83
2024/04/17 10:03:36;;;;;;;10.25;4.40;;;;;;;30.16;33.02;99593.06;11217635;26;20051;-81
2024/04/17 10:09:05;;;;;;;8.27;4.32;;;;;;;30.14;33.19;99573.25;11230181;26;20031;-80
2024/04/17 10:14:31;;;;;;;6.90;4.13;;;;;;;30.52;32.72;99636.31;11239785;26;20027;-82
2024/04/17 10:19:55;;;;;;;9.38;3.70;;;;;;;30.28;31.99;99651.94;11271085;26;20012;-82
2024/04/17 10:25:26;;;;;;;9.05;4.03;;;;;;;29.95;33.50;99644.72;11257742;26;20009;-81
2024/04/17 10:30:52;;;;;;;8.60;4.55;;;;;;;29.59;35.22;99659.47;11278812;26;20042;-81
2024/04/17 10:36:16;;;;;;;13.68;4.32;;;;;;;29.24;37.85;99675.84;11290681;26;20445;-80
2024/04/17 10:41:43;;;;;;;13.93;5.22;;;;;;;29.46;38.02;99650.56;11218823;26;20052;-84
2024/04/17 10:47:08;;;;;;;9.02;5.18;;;;;;;29.45;39.14;99671.44;11269609;26;19999;-83
2024/04/17 10:52:33;;;;;;;11.00;5.18;;;;;;;28.96;41.10;99625.47;11217304;26;20003;-81
2024/04/17 10:58:02;;;;;;;13.38;6.03;;;;;;;28.68;42.88;99636.75;11282008;26;19998;-79
2024/04/17 11:03:26;;;;;;;12.90;5.68;;;;;;;28.22;46.56;99594.13;11247010;26;20009;-84
2024/04/17 11:08:52;;;;;;;12.55;5.85;;;;;;;27.90;49.07;99577.50;11284925;26;19999;-81
2024/04/17 11:14:19;;;;;;;12.65;6.40;;;;;;;27.81;50.69;99540.22;11236217;26;20017;-81
2024/04/17 11:19:44;;;;;;;12.70;6.53;;;;;;;27.99;52.24;99511.69;11216020;26;20072;-79
2024/04/17 11:25:15;;;;;;;14.65;6.50;;;;;;;28.08;52.34;99548.13;11223727;26;19999;-79
2024/04/17 11:30:48;;;;;;;19.02;7.57;;;;;;;27.86;54.24;99535.31;11249351;26;20046;-80
2024/04/17 11:36:14;;;;;;;21.25;8.63;;;;;;;27.58;54.87;99478.69;11222500;26;20014;-80
2024/04/17 11:41:38;;;;;;;18.63;7.50;;;;;;;27.30;53.37;99458.16;11217246;26;20002;-79
2024/04/17 11:47:07;;;;;;;19.90;7.75;;;;;;;27.24;56.75;99420.69;11229929;26;20267;-80
2024/04/17 11:52:32;;;;;;;15.10;7.75;;;;;;;26.94;61.81;99378.63;11293624;26;19999;-82
2024/04/17 11:57:56;;;;;;;19.65;8.50;;;;;;;26.81;60.66;99363.34;11249605;26;20011;-86
2024/04/17 12:03:23;;;;;;;30.92;9.90;;;;;;;26.79;62.18;99400.50;11223064;26;20014;-83
2024/04/17 12:08:48;;;;;;;21.13;8.35;;;;;;;27.07;58.72;99375.00;11232472;26;20012;-81
2024/04/17 12:14:12;;;;;;;25.45;9.43;;;;;;;26.78;61.31;99401.50;11290479;26;20328;-82
2024/04/17 12:19:39;;;;;;;22.50;8.68;;;;;;;26.96;63.27;99400.19;11278076;26;20002;-85
2024/04/17 12:30:43;;;;;;;25.25;8.75;;;;;;;27.56;57.75;99388.47;11331552;26;20070;-84
2024/04/17 12:36:11;;;;;;;32.95;8.75;;;;;;;27.31;61.63;99390.28;11274724;26;20009;-82
2024/04/17 12:41:35;;;;;;;25.92;9.85;;;;;;;27.23;60.98;99370.16;11237487;26;20003;-80
2024/04/17 12:46:59;;;;;;;30.00;8.45;;;;;;;27.18;60.52;99377.75;11224793;26;20009;-82
2024/04/17 12:52:26;;;;;;;33.85;10.02;;;;;;;27.44;61.12;99383.94;11199260;26;20321;-81
2024/04/17 12:57:50;;;;;;;38.03;10.35;;;;;;;27.05;60.45;99414.88;11275336;26;20499;-81
2024/04/17 13:03:14;;;;;;;41.53;10.85;;;;;;;26.96;64.95;99424.56;11268155;26;20443;-80
2024/04/17 13:08:41;;;;;;;40.53;10.13;;;;;;;27.10;64.50;99407.28;11149399;26;20003;-79
2024/04/17 13:14:05;;;;;;;47.50;10.07;;;;;;;26.73;63.17;99374.75;11217165;26;20022;-85
2024/04/17 13:19:30;;;;;;;61.75;11.70;;;;;;;26.33;66.49;99357.81;11247701;26;20003;-81
2024/04/17 13:24:56;;;;;;;59.53;11.90;;;;;;;26.14;67.85;99333.88;11219929;26;20026;-83
2024/04/17 13:30:20;;;;;;;49.37;9.83;;;;;;;26.28;65.53;99354.56;11310385;26;19998;-83
2024/04/17 13:35:45;;;;;;;64.00;12.52;;;;;;;26.41;71.20;99414.97;11354512;26;19999;-81
2024/04/17 13:41:14;;;;;;;56.70;10.18;;;;;;;26.42;73.84;99451.88;11220250;26;20562;-80
2024/04/17 13:46:40;;;;;;;51.05;8.48;;;;;;;26.55;75.24;99452.75;11245120;26;20002;-81
2024/04/17 13:52:04;;;;;;;33.13;7.78;;;;;;;26.34;78.29;99420.91;11249277;26;20010;-80
2024/04/17 13:57:31;;;;;;;34.88;10.07;;;;;;;25.99;85.78;99413.38;11299353;26;20023;-83
2024/04/17 14:02:56;;;;;;;36.27;7.83;;;;;;;25.76;92.87;99395.19;11247062;26;20084;-84
2024/04/17 14:08:20;;;;;;;26.17;7.72;;;;;;;25.49;96.84;99406.03;11243784;26;20427;-80
2024/04/17 14:13:47;;;;;;;25.90;6.60;;;;;;;25.27;97.45;99409.28;11174383;26;20452;-82
2024/04/17 14:19:11;;;;;;;30.17;6.83;;;;;;;25.21;98.56;99428.59;11244976;26;20830;-81
2024/04/17 14:24:36;;;;;;;34.17;8.20;;;;;;;25.27;99.24;99420.09;11198407;26;20358;-84
2024/04/17 14:30:03;;;;;;;33.83;8.13;;;;;;;25.27;96.98;99398.47;11266846;26;20003;-82
2024/04/17 14:35:27;;;;;;;26.47;6.50;;;;;;;25.00;96.45;99385.00;11222972;26;20047;-79
2024/04/17 14:40:58;;;;;;;27.33;7.10;;;;;;;24.78;100.00;99392.72;11235872;26;20487;-80
2024/04/17 14:46:25;;;;;;;28.45;7.07;;;;;;;24.71;100.00;99395.91;11232416;26;20077;-78
2024/04/17 14:51:50;;;;;;;39.92;8.13;;;;;;;24.67;100.00;99430.34;11227736;26;20014;-78
2024/04/17 14:57:14;;;;;;;36.45;7.80;;;;;;;24.81;100.00;99480.75;11250369;26;20002;-81
2024/04/17 15:02:41;;;;;;;26.58;7.20;;;;;;;24.85;100.00;99503.88;11250698;26;20131;-80
2024/04/17 15:08:06;;;;;;;35.05;8.38;;;;;;;24.56;100.00;99527.28;11276912;26;20018;-82
2024/04/17 15:13:31;;;;;;;35.80;9.57;;;;;;;24.40;100.00;99524.66;11294672;26;19999;-82
2024/04/17 15:18:58;;;;;;;31.27;8.15;;;;;;;23.91;100.00;99513.22;11265225;26;20455;-82
2024/04/17 15:24:23;;;;;;;28.55;9.05;;;;;;;23.61;100.00;99490.78;11236245;26;20007;-78
2024/04/17 15:29:47;;;;;;;32.65;9.88;;;;;;;23.56;100.00;99518.00;11245189;26;20022;-79
2024/04/17 15:35:14;;;;;;;32.80;10.00;;;;;;;23.47;100.00;99499.66;11221448;26;20674;-82
2024/04/17 15:40:44;;;;;;;30.40;8.75;;;;;;;23.44;100.00;99494.38;11217445;26;20087;-79
2024/04/17 15:46:11;;;;;;;42.72;9.65;;;;;;;23.36;100.00;99489.47;11249536;26;20026;-80
2024/04/17 15:51:39;;;;;;;36.13;8.85;;;;;;;23.21;100.00;99508.31;11245066;26;19999;-79
2024/04/17 15:57:03;;;;;;;39.53;10.75;;;;;;;22.98;100.00;99528.41;11221773;26;19995;-78
2024/04/17 16:02:28;;;;;;;39.42;10.45;;;;;;;23.01;100.00;99517.50;11246116;26;20003;-77
2024/04/17 16:07:55;;;;;;;46.28;11.55;;;;;;;22.99;100.00;99543.63;11247387;26;20014;-81
2024/04/17 16:13:22;;;;;;;41.17;10.65;;;;;;;22.91;100.00;99524.31;11246164;26;20435;-81
2024/04/17 16:18:46;;;;;;;45.83;11.15;;;;;;;22.79;100.00;99533.94;11240452;26;20014;-77
2024/04/17 16:24:13;;;;;;;40.95;10.35;;;;;;;22.72;100.00;99548.66;11242425;26;19999;-87
2024/04/17 16:29:40;;;;;;;36.63;11.80;;;;;;;22.59;100.00;99555.63;11184064;26;20003;-80
2024/04/17 16:35:04;;;;;;;51.63;11.77;;;;;;;22.63;100.00;99570.69;11196026;26;20035;-80
2024/04/17 16:40:32;;;;;;;43.90;11.13;;;;;;;22.49;100.00;99592.06;11195986;26;19999;-79
2024/04/17 16:46:03;;;;;;;37.95;10.48;;;;;;;22.58;100.00;99596.94;11194327;26;20362;-79
2024/04/17 16:51:27;;;;;;;44.65;12.20;;;;;;;22.55;100.00;99607.88;11190397;26;20003;-80
2024/04/17 16:56:54;;;;;;;45.97;11.48;;;;;;;22.60;100.00;99620.13;11182349;26;20023;-81
2024/04/17 17:02:20;;;;;;;44.45;11.32;;;;;;;22.49;100.00;99621.63;11184449;26;20008;-81
2024/04/17 17:07:44;;;;;;;56.30;12.65;;;;;;;22.36;100.00;99642.03;11223364;26;20000;-83
2024/04/17 17:13:11;;;;;;;49.00;11.95;;;;;;;22.39;100.00;99647.25;11189030;26;20080;-78
2024/04/17 17:18:35;;;;;;;52.70;12.50;;;;;;;22.39;100.00;99648.13;11171915;26;20011;-81
2024/04/17 17:23:59;;;;;;;47.72;11.52;;;;;;;22.39;100.00;99658.88;11254005;26;20031;-83
2024/04/17 17:29:26;;;;;;;51.38;12.00;;;;;;;22.54;100.00;99685.00;11192783;26;20081;-81
2024/04/17 17:34:50;;;;;;;44.65;10.60;;;;;;;22.54;100.00;99705.66;11214815;26;20007;-82
2024/04/17 17:40:14;;;;;;;43.45;11.98;;;;;;;22.52;100.00;99727.25;11182588;26;20027;-78
2024/04/17 17:45:41;;;;;;;47.60;12.07;;;;;;;22.45;100.00;99743.78;11200532;26;20003;-80
2024/04/17 17:51:05;;;;;;;52.25;12.90;;;;;;;22.22;100.00;99758.34;11200737;26;20577;-79
2024/04/17 17:56:29;;;;;;;46.80;12.77;;;;;;;22.13;100.00;99767.72;11188979;26;20003;-86
2024/04/17 18:01:56;;;;;;;52.08;12.75;;;;;;;21.97;100.00;99779.28;11196657;26;20013;-86
2024/04/17 18:07:20;;;;;;;43.38;11.93;;;;;;;21.81;100.00;99776.38;11189124;26;20077;-84
2024/04/17 18:12:46;;;;;;;47.83;12.50;;;;;;;21.50;100.00;99782.31;11183420;26;19999;-80
2024/04/17 18:18:13;;;;;;;54.65;12.90;;;;;;;21.27;100.00;99782.44;11206466;26;20409;-82
2024/04/17 18:23:38;;;;;;;44.25;12.82;;;;;;;21.45;100.00;99798.63;11197506;26;20007;-78
2024/04/17 18:29:02;;;;;;;45.20;12.25;;;;;;;21.64;100.00;99803.16;11193329;26;20014;-77
2024/04/17 18:34:30;;;;;;;43.30;11.32;;;;;;;21.59;100.00;99826.69;11195915;26;20000;-78
2024/04/17 18:39:55;;;;;;;43.50;11.68;;;;;;;21.35;100.00;99836.66;11171420;26;20022;-78
2024/04/17 18:45:19;;;;;;;37.53;12.43;;;;;;;21.25;100.00;99849.63;11184518;26;20018;-80
2024/04/17 18:50:47;;;;;;;45.85;11.50;;;;;;;21.17;100.00;99857.13;11193564;26;20011;-81
2024/04/17 18:56:13;;;;;;;39.60;11.50;;;;;;;21.21;100.00;99865.91;11205373;26;20022;-78
2024/04/17 19:01:37;;;;;;;32.65;10.75;;;;;;;20.99;100.00;99873.97;11193938;26;19996;-80
2024/04/17 19:07:05;;;;;;;43.97;11.25;;;;;;;20.93;100.00;99893.03;11242678;26;20015;-82
2024/04/17 19:12:30;;;;;;;35.97;10.47;;;;;;;21.06;100.00;99907.69;11239656;26;20000;-88
2024/04/17 19:17:54;;;;;;;39.38;10.65;;;;;;;21.26;100.00;99921.19;11269126;26;20011;-79
2024/04/17 19:23:21;;;;;;;35.58;10.52;;;;;;;21.23;100.00;99926.66;11216968;26;20010;-79
2024/04/17 19:28:46;;;;;;;47.77;12.57;;;;;;;21.03;100.00;99927.47;11245369;26;20014;-81
2024/04/17 19:34:11;;;;;;;47.35;13.43;;;;;;;20.98;100.00;99940.19;11222234;26;20015;-81
2024/04/17 19:39:41;;;;;;;40.50;12.35;;;;;;;21.06;100.00;99937.22;11191108;26;20077;-81
2024/04/17 19:45:06;;;;;;;42.75;12.95;;;;;;;20.90;100.00;99944.09;11192120;26;20008;-81
2024/04/17 19:50:30;;;;;;;42.75;12.07;;;;;;;20.87;100.00;99937.03;11204649;26;20445;-80
2024/04/17 19:55:57;;;;;;;51.90;11.63;;;;;;;20.92;100.00;99942.25;11155701;26;20008;-81
2024/04/17 20:02:01;;;;;;;45.65;11.27;;;;;;;20.97;100.00;99942.94;11180219;26;20065;-81
2024/04/17 20:07:28;;;;;;;44.10;11.27;;;;;;;20.93;100.00;99949.38;11193825;26;20346;-81
2024/04/17 20:12:56;;;;;;;37.47;11.48;;;;;;;20.87;100.00;99946.94;11223101;26;20051;-81
2024/04/17 20:18:23;;;;;;;38.35;11.63;;;;;;;20.89;100.00;99950.41;11149131;26;20008;-81
2024/04/17 20:23:49;;;;;;;43.63;11.00;;;;;;;20.82;100.00;99962.31;11214850;26;20017;-81
2024/04/17 20:29:18;;;;;;;42.40;10.90;;;;;;;20.80;100.00;99964.22;11275555;26;20014;-81
2024/04/17 20:34:42;;;;;;;34.58;10.98;;;;;;;20.76;100.00;99966.13;11273309;26;19999;-81
2024/04/17 20:40:07;;;;;;;37.80;10.68;;;;;;;20.63;100.00;99975.56;11273126;26;20003;-84
2024/04/17 20:45:35;;;;;;;34.53;9.70;;;;;;;20.64;100.00;99978.19;11201094;26;20000;-82
2024/04/17 20:51:02;;;;;;;32.17;9.82;;;;;;;20.71;100.00;99989.56;11200838;26;19996;-82
2024/04/17 20:56:26;;;;;;;38.03;10.75;;;;;;;20.69;100.00;99991.44;11154250;26;20004;-82
2024/04/17 21:02:13;;;;;;;33.20;10.02;;;;;;;20.68;100.00;99987.88;11183345;26;20044;-81
2024/04/17 21:07:37;;;;;;;40.75;10.50;;;;;;;20.76;100.00;99997.44;11194801;26;20000;-82
2024/04/17 21:13:02;;;;;;;46.28;10.48;;;;;;;20.81;100.00;100008.84;11177041;26;20449;-82
2024/04/17 21:18:29;;;;;;;47.30;13.05;;;;;;;20.86;100.00;100005.09;11226012;26;20003;-82
2024/04/17 21:23:58;;;;;;;35.53;12.43;;;;;;;20.82;100.00;100010.59;11246995;26;20073;-81
2024/04/17 21:29:22;;;;;;;36.00;10.25;;;;;;;20.66;100.00;100026.44;11262115;26;20013;-81
2024/04/17 21:34:49;;;;;;;42.60;11.75;;;;;;;20.62;100.00;100036.38;11251896;26;20010;-82
2024/04/17 21:40:14;;;;;;;47.00;11.45;;;;;;;20.68;100.00;100035.28;11205877;26;20022;-82
2024/04/17 21:45:39;;;;;;;48.03;11.57;;;;;;;20.69;100.00;100029.84;11188538;26;20015;-81
2024/04/17 21:51:08;;;;;;;41.88;12.00;;;;;;;20.65;100.00;100040.78;11227402;26;20014;-82
2024/04/17 21:56:32;;;;;;;43.58;12.65;;;;;;;20.59;100.00;100039.19;11178809;26;19999;-82
2024/04/17 22:01:56;;;;;;;48.70;12.55;;;;;;;20.55;100.00;100050.06;11239431;26;19999;-80
2024/04/17 22:07:23;;;;;;;42.88;11.75;;;;;;;20.52;100.00;100075.22;11248604;26;20064;-81
2024/04/17 22:12:48;;;;;;;50.08;13.57;;;;;;;20.53;100.00;100071.59;11220109;26;20003;-81
2024/04/17 22:18:12;;;;;;;51.15;12.38;;;;;;;20.50;100.00;100085.09;11175029;26;20037;-81
2024/04/17 22:23:39;;;;;;;49.83;12.05;;;;;;;20.43;100.00;100083.56;11200846;26;20084;-82
2024/04/17 22:29:03;;;;;;;39.08;10.55;;;;;;;20.21;100.00;100077.19;11198474;26;20034;-80
2024/04/17 22:34:28;;;;;;;39.53;12.25;;;;;;;19.89;100.00;100078.28;11172801;26;20328;-82
2024/04/17 22:39:55;;;;;;;45.17;11.75;;;;;;;19.73;100.00;100071.69;11198734;26;20004;-81
2024/04/17 22:45:19;;;;;;;37.03;10.97;;;;;;;19.81;100.00;100070.53;11223397;26;19999;-81
2024/04/17 22:50:43;;;;;;;31.95;10.38;;;;;;;19.54;100.00;100065.19;11240014;26;20006;-81
2024/04/17 22:56:10;;;;;;;40.90;11.63;;;;;;;19.53;100.00;100066.97;11239536;26;20018;-80
2024/04/17 23:01:35;;;;;;;37.72;11.02;;;;;;;19.46;100.00;100077.00;11215689;26;20683;-81
2024/04/17 23:06:59;;;;;;;25.63;9.57;;;;;;;19.20;100.00;100068.00;11246316;26;20010;-81
2024/04/17 23:12:26;;;;;;;28.50;9.23;;;;;;;19.17;100.00;100073.44;11195423;26;20017;-81
2024/04/17 23:17:51;;;;;;;35.53;9.20;;;;;;;19.11;100.00;100069.16;11219500;26;20015;-81
2024/04/17 23:23:15;;;;;;;25.80;9.02;;;;;;;19.01;100.00;100065.03;11184641;26;20004;-81
2024/04/17 23:28:46;;;;;;;26.83;9.00;;;;;;;18.93;100.00;100073.28;11228388;26;20013;-81
2024/04/17 23:34:11;;;;;;;33.05;9.48;;;;;;;18.90;100.00;100080.53;11234535;26;20025;-80
2024/04/17 23:39:35;;;;;;;28.33;8.32;;;;;;;19.02;100.00;100069.47;11231843;26;19999;-81
2024/04/17 23:45:01;;;;;;;35.95;11.43;;;;;;;19.09;100.00;100068.34;11244083;26;20007;-82
2024/04/17 23:50:26;;;;;;;36.50;10.07;;;;;;;19.25;100.00;100066.94;11204154;26;20026;-81
2024/04/17 23:55:50;;;;;;;36.63;11.45;;;;;;;19.46;100.00;100066.31;11191844;26;20079;-82
